createdAt,value
2023-03-06T00:00:55.437Z,2.10
2023-03-06T00:03:22.868Z,1.80
2023-03-06T00:05:49.633Z,2.23
2023-03-06T00:08:16.311Z,1.80
2023-03-06T00:10:42.950Z,2.00
2023-03-06T00:13:19.061Z,1.67
2023-03-06T00:15:47.433Z,2.00
2023-03-06T00:18:14.472Z,1.77
2023-03-06T00:20:42.995Z,1.67
2023-03-06T00:23:10.242Z,1.70
2023-03-06T00:25:38.601Z,1.70
2023-03-06T00:28:06.041Z,1.60
2023-03-06T00:30:32.973Z,1.50
2023-03-06T00:32:59.490Z,1.50
2023-03-06T00:35:26.118Z,1.67
2023-03-06T00:37:52.723Z,1.60
2023-03-06T00:40:21.243Z,1.70
2023-03-06T00:42:48.206Z,1.33
2023-03-06T00:45:15.192Z,1.27
2023-03-06T00:47:42.728Z,1.33
2023-03-06T00:50:10.756Z,1.20
2023-03-06T00:52:37.561Z,1.10
2023-03-06T00:55:05.495Z,1.20
2023-03-06T00:57:32.055Z,1.30
2023-03-06T00:59:58.700Z,1.20
2023-03-06T01:02:25.753Z,1.30
2023-03-06T01:04:52.424Z,1.30
2023-03-06T01:07:19.089Z,1.33
2023-03-06T01:09:45.602Z,1.13
2023-03-06T01:12:12.209Z,1.60
2023-03-06T01:14:38.899Z,0.90
2023-03-06T01:17:05.642Z,1.40
2023-03-06T01:19:32.145Z,1.57
2023-03-06T01:21:58.912Z,1.33
2023-03-06T01:24:25.911Z,1.47
2023-03-06T01:26:52.696Z,1.50
2023-03-06T01:29:19.599Z,1.63
2023-03-06T01:31:46.289Z,1.80
2023-03-06T01:34:12.916Z,1.50
2023-03-06T01:36:39.518Z,1.90
2023-03-06T01:39:06.224Z,1.50
2023-03-06T01:41:33.054Z,2.03
2023-03-06T01:43:59.695Z,1.93
2023-03-06T01:46:33.931Z,1.87
2023-03-06T01:49:12.841Z,1.70
2023-03-06T01:51:47.332Z,1.60
2023-03-06T01:54:20.458Z,1.47
2023-03-06T01:56:50.965Z,1.70
2023-03-06T01:59:18.458Z,1.53
2023-03-06T02:01:45.418Z,1.17
2023-03-06T02:04:12.705Z,1.30
2023-03-06T02:06:43.233Z,1.50
2023-03-06T02:09:11.852Z,1.17
2023-03-06T02:11:38.685Z,1.40
2023-03-06T02:14:05.440Z,1.70
2023-03-06T02:16:33.810Z,1.47
2023-03-06T02:19:02.558Z,1.40
2023-03-06T02:21:34.216Z,1.70
2023-03-06T02:24:26.993Z,1.80
2023-03-06T02:26:54.517Z,1.60
2023-03-06T02:29:27.187Z,1.53
2023-03-06T02:31:53.840Z,1.60
2023-03-06T02:34:20.370Z,2.10
2023-03-06T02:36:54.147Z,1.47
2023-03-06T02:39:25.136Z,1.30
2023-03-06T02:41:52.009Z,1.40
2023-03-06T02:44:18.705Z,1.60
2023-03-06T02:46:45.273Z,1.40
2023-03-06T02:49:11.820Z,1.50
2023-03-06T02:51:38.644Z,1.70
2023-03-06T02:54:05.336Z,1.63
2023-03-06T02:56:32.073Z,1.40
2023-03-06T02:58:58.634Z,1.80
2023-03-06T03:01:25.374Z,2.00
2023-03-06T03:03:52.058Z,1.27
2023-03-06T03:06:18.623Z,1.37
2023-03-06T03:08:45.151Z,1.33
2023-03-06T03:11:12.215Z,1.50
2023-03-06T03:13:38.863Z,1.97
2023-03-06T03:16:11.642Z,1.40
2023-03-06T03:18:38.168Z,1.33
2023-03-06T03:21:11.573Z,1.63
2023-03-06T03:23:38.251Z,1.90
2023-03-06T03:26:10.592Z,1.80
2023-03-06T03:28:37.738Z,1.77
2023-03-06T03:31:06.427Z,1.97
2023-03-06T03:33:33.986Z,2.00
2023-03-06T03:36:02.356Z,2.00
2023-03-06T03:38:29.125Z,2.57
2023-03-06T03:40:55.839Z,2.23
2023-03-06T03:43:22.606Z,2.30
2023-03-06T03:45:49.415Z,2.47
2023-03-06T03:48:16.102Z,2.27
2023-03-06T03:50:42.892Z,2.90
2023-03-06T03:53:09.704Z,2.77
2023-03-06T03:55:36.643Z,2.50
2023-03-06T03:58:03.455Z,2.40
2023-03-06T04:00:30.167Z,2.80
2023-03-06T04:02:56.895Z,2.83
2023-03-06T04:05:23.585Z,2.60
2023-03-06T04:07:50.632Z,3.20
2023-03-06T04:10:18.557Z,2.70
2023-03-06T04:12:45.296Z,3.37
2023-03-06T04:15:11.983Z,3.03
2023-03-06T04:17:38.672Z,3.03
2023-03-06T04:20:05.771Z,2.80
2023-03-06T04:22:32.835Z,3.27
2023-03-06T04:24:59.502Z,2.90
2023-03-06T04:27:26.224Z,2.97
2023-03-06T04:29:56.168Z,2.97
2023-03-06T04:32:23.896Z,3.43
2023-03-06T04:34:50.970Z,3.30
2023-03-06T04:37:21.240Z,3.43
2023-03-06T04:39:48.401Z,3.27
2023-03-06T04:42:15.156Z,2.53
2023-03-06T04:44:42.173Z,2.77
2023-03-06T04:47:09.492Z,2.97
2023-03-06T04:49:36.269Z,3.13
2023-03-06T04:52:03.292Z,3.23
2023-03-06T04:54:30.072Z,3.40
2023-03-06T04:56:57.353Z,3.60
2023-03-06T04:59:24.154Z,2.83
2023-03-06T05:01:51.123Z,3.37
2023-03-06T05:04:17.861Z,3.33
2023-03-06T05:06:44.650Z,3.47
2023-03-06T05:09:18.091Z,3.90
2023-03-06T05:11:48.414Z,3.83
2023-03-06T05:14:15.692Z,3.77
2023-03-06T05:16:42.597Z,3.90
2023-03-06T05:19:12.376Z,3.83
2023-03-06T05:21:39.144Z,4.13
2023-03-06T05:24:06.204Z,4.80
2023-03-06T05:26:34.552Z,3.90
2023-03-06T05:29:01.276Z,4.73
2023-03-06T05:31:28.025Z,5.00
2023-03-06T05:33:54.869Z,4.53
2023-03-06T05:36:21.545Z,4.60
2023-03-06T05:38:48.324Z,4.30
2023-03-06T05:41:15.660Z,4.30
2023-03-06T05:43:42.554Z,4.97
2023-03-06T05:46:10.805Z,4.67
2023-03-06T05:48:38.202Z,4.33
2023-03-06T05:51:05.734Z,5.10
2023-03-06T05:53:32.952Z,5.10
2023-03-06T05:56:08.832Z,5.40
2023-03-06T05:58:36.094Z,4.77
2023-03-06T06:01:12.509Z,5.40
2023-03-06T06:03:39.899Z,5.50
2023-03-06T06:06:08.627Z,5.70
2023-03-06T06:08:35.908Z,6.43
2023-03-06T06:11:05.154Z,6.30
2023-03-06T06:13:32.558Z,7.23
2023-03-06T06:15:59.283Z,7.27
2023-03-06T06:18:26.322Z,7.10
2023-03-06T06:20:55.881Z,6.83
2023-03-06T06:23:26.322Z,6.37
2023-03-06T06:29:04.444Z,6.47
2023-03-06T06:31:34.302Z,7.17
2023-03-06T06:34:01.320Z,7.13
2023-03-06T06:36:27.921Z,7.00
2023-03-06T06:38:54.492Z,6.47
2023-03-06T06:41:46.664Z,6.53
2023-03-06T06:44:10.429Z,6.87
2023-03-06T06:47:20.688Z,6.30
2023-03-06T06:49:24.219Z,6.90
2023-03-06T06:51:50.779Z,7.03
2023-03-06T06:54:18.663Z,7.07
2023-03-06T06:56:45.273Z,7.53
2023-03-06T06:59:17.180Z,6.70
2023-03-06T07:01:44.234Z,7.47
2023-03-06T07:04:14.846Z,8.17
2023-03-06T07:06:42.174Z,21.63
2023-03-06T07:09:09.764Z,49.50
2023-03-06T07:11:38.375Z,15.50
2023-03-06T07:14:05.529Z,10.37
2023-03-06T07:16:32.445Z,15.03
2023-03-06T07:18:59.160Z,17.67
2023-03-06T07:21:25.781Z,26.93
2023-03-06T07:23:52.443Z,16.03
2023-03-06T07:26:18.965Z,26.30
2023-03-06T07:28:52.302Z,15.53
2023-03-06T07:31:25.046Z,10.63
2023-03-06T07:33:53.107Z,8.23
2023-03-06T07:36:20.410Z,8.50
2023-03-06T07:38:47.208Z,7.60
2023-03-06T07:41:16.468Z,7.93
2023-03-06T07:43:44.461Z,7.80
2023-03-06T07:46:12.840Z,8.00
2023-03-06T07:48:40.100Z,8.17
2023-03-06T07:51:13.097Z,7.67
2023-03-06T07:53:39.688Z,7.20
2023-03-06T07:56:08.897Z,7.87
2023-03-06T07:58:36.719Z,7.67
2023-03-06T08:01:08.777Z,7.67
2023-03-06T08:03:36.145Z,7.27
2023-03-06T08:06:06.624Z,7.97
2023-03-06T08:08:35.391Z,7.60
2023-03-06T08:11:02.017Z,8.30
2023-03-06T08:13:28.722Z,7.47
2023-03-06T08:15:56.616Z,7.57
2023-03-06T08:18:23.303Z,8.20
2023-03-06T08:20:49.900Z,8.27
2023-03-06T08:23:16.654Z,7.17
2023-03-06T08:25:43.418Z,7.07
2023-03-06T08:28:10.192Z,6.43
2023-03-06T08:30:36.826Z,6.10
2023-03-06T08:33:03.489Z,9.93
2023-03-06T08:35:30.239Z,24.53
2023-03-06T08:37:57.493Z,28.27
2023-03-06T08:40:26.952Z,18.47
2023-03-06T08:42:53.545Z,6.30
2023-03-06T08:45:20.175Z,6.97
2023-03-06T08:47:46.921Z,7.80
2023-03-06T08:50:14.301Z,7.13
2023-03-06T08:52:40.872Z,5.90
2023-03-06T08:55:08.516Z,5.50
2023-03-06T08:57:35.280Z,4.37
2023-03-06T09:00:02.039Z,4.20
2023-03-06T09:02:28.734Z,3.97
2023-03-06T09:04:55.396Z,3.38
2023-03-06T09:07:22.057Z,3.15
2023-03-06T09:09:48.665Z,2.92
2023-03-06T09:12:15.344Z,3.38
2023-03-06T09:14:42.311Z,3.05
2023-03-06T09:17:09.313Z,2.80
2023-03-06T09:19:36.046Z,1.95
2023-03-06T09:22:02.664Z,1.70
2023-03-06T09:24:29.330Z,2.20
2023-03-06T09:26:55.963Z,1.60
2023-03-06T09:29:22.815Z,1.65
2023-03-06T09:31:49.383Z,1.15
2023-03-06T09:34:16.512Z,1.20
2023-03-06T09:36:56.781Z,1.00
2023-03-06T09:39:24.678Z,0.80
2023-03-06T09:41:53.414Z,0.90
2023-03-06T09:44:31.954Z,1.00
2023-03-06T09:47:13.402Z,0.98
2023-03-06T09:50:14.597Z,0.80
2023-03-06T09:53:08.793Z,1.20
2023-03-06T09:55:38.161Z,1.00
2023-03-06T09:58:24.235Z,0.88
2023-03-06T10:00:59.503Z,0.80
2023-03-06T10:03:45.260Z,1.13
2023-03-06T10:06:22.882Z,1.02
2023-03-06T10:08:55.136Z,1.10
2023-03-06T10:11:44.623Z,1.40
2023-03-06T10:14:21.704Z,1.45
2023-03-06T10:16:48.631Z,1.05
2023-03-06T10:19:18.437Z,0.98
2023-03-06T10:22:16.026Z,1.10
2023-03-06T10:24:58.647Z,1.23
2023-03-06T10:27:51.126Z,1.60
2023-03-06T10:30:47.006Z,1.65
2023-03-06T10:33:19.525Z,1.65
2023-03-06T10:35:49.569Z,1.92
2023-03-06T10:38:26.931Z,1.85
2023-03-06T10:41:11.981Z,2.10
2023-03-06T10:43:40.118Z,2.10
2023-03-06T10:46:08.257Z,2.05
2023-03-06T10:48:36.722Z,2.20
2023-03-06T10:51:18.031Z,1.83
2023-03-06T10:53:54.745Z,1.80
2023-03-06T10:56:29.364Z,1.88
2023-03-06T10:59:11.044Z,1.40
2023-03-06T11:01:38.679Z,1.70
2023-03-06T11:04:15.409Z,1.52
2023-03-06T11:06:42.823Z,1.80
2023-03-06T11:09:24.391Z,1.52
2023-03-06T11:11:52.278Z,1.42
2023-03-06T11:14:23.039Z,1.60
2023-03-06T11:16:55.427Z,1.65
2023-03-06T11:19:28.868Z,2.03
2023-03-06T11:22:03.192Z,1.50
2023-03-06T11:24:40.596Z,1.55
2023-03-06T11:27:36.734Z,1.65
2023-03-06T11:30:21.040Z,1.02
2023-03-06T11:33:14.951Z,1.52
2023-03-06T11:35:50.615Z,1.77
2023-03-06T11:38:25.852Z,2.10
2023-03-06T11:40:56.053Z,1.73
2023-03-06T11:43:49.804Z,1.60
2023-03-06T11:46:22.986Z,1.60
2023-03-06T11:49:13.945Z,1.77
2023-03-06T11:51:44.660Z,1.20
2023-03-06T11:54:13.629Z,1.40
2023-03-06T11:56:48.518Z,1.40
2023-03-06T11:59:51.023Z,1.23
2023-03-06T12:02:55.362Z,1.30
2023-03-06T12:05:58.159Z,1.35
2023-03-06T12:08:36.680Z,11.88
2023-03-06T12:11:33.330Z,1.90
2023-03-06T12:14:23.314Z,12.18
2023-03-06T12:17:12.520Z,3.85
2023-03-06T12:19:39.265Z,1.52
2023-03-06T12:22:32.161Z,13.27
2023-03-06T12:25:11.274Z,23.48
2023-03-06T12:28:01.379Z,9.32
2023-03-06T12:30:51.903Z,2.25
2023-03-06T12:33:41.386Z,2.60
2023-03-06T12:36:29.303Z,1.90
2023-03-06T12:39:10.504Z,1.60
2023-03-06T12:41:54.618Z,1.10
2023-03-06T12:44:36.586Z,1.50
2023-03-06T12:47:09.123Z,1.40
2023-03-06T12:49:38.794Z,1.27
2023-03-06T12:52:07.637Z,0.90
2023-03-06T12:54:38.772Z,0.98
2023-03-06T12:57:08.343Z,1.27
2023-03-06T12:59:42.690Z,0.90
2023-03-06T13:02:28.047Z,1.40
2023-03-06T13:05:20.163Z,1.40
2023-03-06T13:08:11.170Z,1.30
2023-03-06T13:10:41.637Z,1.27
2023-03-06T13:13:41.184Z,5.68
2023-03-06T13:16:57.621Z,4.88
2023-03-06T13:19:26.110Z,2.50
2023-03-06T13:21:55.279Z,2.70
2023-03-06T13:24:30.358Z,3.45
2023-03-06T13:27:02.436Z,1.70
2023-03-06T13:29:38.118Z,1.55
2023-03-06T13:32:05.999Z,1.60
2023-03-06T13:34:42.478Z,1.90
2023-03-06T13:37:23.101Z,2.78
2023-03-06T13:39:55.888Z,2.92
2023-03-06T13:42:31.725Z,4.35
2023-03-06T13:45:16.786Z,0.80
2023-03-06T13:48:15.902Z,1.35
2023-03-06T13:50:43.663Z,0.52
2023-03-06T13:53:34.775Z,1.05
2023-03-06T13:56:42.245Z,0.82
2023-03-06T13:59:34.443Z,1.50
2023-03-06T14:02:34.938Z,2.35
2023-03-06T14:05:03.316Z,1.77
2023-03-06T14:08:10.179Z,0.60
2023-03-06T14:10:38.476Z,1.27
2023-03-06T14:13:32.087Z,1.40
2023-03-06T14:16:02.102Z,0.70
2023-03-06T14:18:39.788Z,1.00
2023-03-06T14:21:13.279Z,0.85
2023-03-06T14:23:45.792Z,1.52
2023-03-06T14:26:18.732Z,1.08
2023-03-06T14:28:53.029Z,0.85
2023-03-06T14:31:25.380Z,0.88
2023-03-06T14:33:58.464Z,1.23
2023-03-06T14:36:53.238Z,1.15
2023-03-06T14:39:19.757Z,5.05
2023-03-06T14:41:46.426Z,0.50
2023-03-06T14:44:26.346Z,0.90
2023-03-06T14:46:55.335Z,1.15
2023-03-06T14:49:24.353Z,0.80
2023-03-06T14:51:53.622Z,0.70
2023-03-06T14:54:28.081Z,0.60
2023-03-06T14:57:01.596Z,0.52
2023-03-06T14:59:30.721Z,2.08
2023-03-06T15:02:02.569Z,0.75
2023-03-06T15:04:38.472Z,0.47
2023-03-06T15:07:11.291Z,1.20
2023-03-06T15:09:38.919Z,0.90
2023-03-06T15:12:08.664Z,1.55
2023-03-06T15:14:39.306Z,3.53
2023-03-06T15:17:42.202Z,1.20
2023-03-06T15:20:38.767Z,1.00
2023-03-06T15:23:34.713Z,1.08
2023-03-06T15:26:13.962Z,0.60
2023-03-06T15:28:40.653Z,0.60
2023-03-06T15:31:10.453Z,0.95
2023-03-06T15:33:37.495Z,3.35
2023-03-06T15:36:06.321Z,0.55
2023-03-06T15:38:37.299Z,0.57
2023-03-06T15:41:05.805Z,0.50
2023-03-06T15:43:40.291Z,0.60
2023-03-06T15:46:07.697Z,0.70
2023-03-06T15:48:35.561Z,0.70
2023-03-06T15:51:03.321Z,0.73
2023-03-06T15:53:29.992Z,0.70
2023-03-06T15:55:58.464Z,2.80
2023-03-06T15:58:29.800Z,0.77
2023-03-06T16:00:56.496Z,1.23
2023-03-06T16:03:23.484Z,4.68
2023-03-06T16:05:50.146Z,0.95
2023-03-06T16:08:16.759Z,0.70
2023-03-06T16:10:44.852Z,0.90
2023-03-06T16:13:16.598Z,3.60
2023-03-06T16:15:49.185Z,1.85
2023-03-06T16:18:16.506Z,4.63
2023-03-06T16:20:47.085Z,1.73
2023-03-06T16:23:15.296Z,0.85
2023-03-06T16:25:45.217Z,1.15
2023-03-06T16:28:15.044Z,2.65
2023-03-06T16:30:43.495Z,2.75
2023-03-06T16:33:12.372Z,6.72
2023-03-06T16:35:39.789Z,5.28
2023-03-06T16:38:06.465Z,1.90
2023-03-06T16:40:43.214Z,1.40
2023-03-06T16:43:10.821Z,1.10
2023-03-06T16:45:39.700Z,1.00
2023-03-06T16:48:06.925Z,0.70
2023-03-06T16:50:40.762Z,0.57
2023-03-06T16:53:09.417Z,0.80
2023-03-06T16:55:36.072Z,1.00
2023-03-06T16:58:02.833Z,1.20
2023-03-06T17:00:31.822Z,0.80
2023-03-06T17:02:59.017Z,0.93
2023-03-06T17:05:25.992Z,0.93
2023-03-06T17:07:52.540Z,1.10
2023-03-06T17:10:22.583Z,1.27
2023-03-06T17:12:52.809Z,2.10
2023-03-06T17:15:19.931Z,1.33
2023-03-06T17:17:46.765Z,4.20
2023-03-06T17:20:13.775Z,6.50
2023-03-06T17:22:41.580Z,3.40
2023-03-06T17:25:09.054Z,1.30
2023-03-06T17:27:36.150Z,5.20
2023-03-06T17:30:04.384Z,2.63
2023-03-06T17:32:32.589Z,1.93
2023-03-06T17:34:59.630Z,2.30
2023-03-06T17:37:26.393Z,2.03
2023-03-06T17:39:53.113Z,5.90
2023-03-06T17:42:19.679Z,5.67
2023-03-06T17:44:46.283Z,18.70
2023-03-06T17:47:12.882Z,8.53
2023-03-06T17:49:39.508Z,2.90
2023-03-06T17:52:06.455Z,1.90
2023-03-06T17:54:33.295Z,8.23
2023-03-06T17:57:03.254Z,7.20
2023-03-06T17:59:31.874Z,2.97
2023-03-06T18:01:59.182Z,2.20
2023-03-06T18:04:26.325Z,2.20
2023-03-06T18:06:53.028Z,3.30
2023-03-06T18:09:19.704Z,2.20
2023-03-06T18:11:46.271Z,2.70
2023-03-06T18:14:13.258Z,2.50
2023-03-06T18:16:39.985Z,2.73
2023-03-06T18:19:06.623Z,3.03
2023-03-06T18:21:33.329Z,2.97
2023-03-06T18:23:59.959Z,2.53
2023-03-06T18:26:28.540Z,3.10
2023-03-06T18:28:58.895Z,2.50
2023-03-06T18:31:28.403Z,3.50
2023-03-06T18:34:00.799Z,4.73
2023-03-06T18:36:30.922Z,5.20
2023-03-06T18:38:58.282Z,9.87
2023-03-06T18:41:25.168Z,26.80
2023-03-06T18:43:56.724Z,24.50
2023-03-06T18:46:24.562Z,28.07
2023-03-06T18:48:51.192Z,28.37
2023-03-06T18:51:19.299Z,14.23
2023-03-06T18:53:46.334Z,5.60
2023-03-06T18:56:19.682Z,4.60
2023-03-06T18:58:46.951Z,3.70
2023-03-06T19:01:13.684Z,3.80
2023-03-06T19:03:41.331Z,3.33
2023-03-06T19:06:11.063Z,4.30
2023-03-06T19:08:39.184Z,3.83
2023-03-06T19:11:16.919Z,3.67
2023-03-06T19:13:44.209Z,2.67
2023-03-06T19:16:18.023Z,2.83
2023-03-06T19:18:44.673Z,2.53
2023-03-06T19:21:17.601Z,3.63
2023-03-06T19:23:44.748Z,2.63
2023-03-06T19:26:11.833Z,4.53
2023-03-06T19:28:40.673Z,5.50
2023-03-06T19:31:19.553Z,3.43
2023-03-06T19:33:48.194Z,2.20
2023-03-06T19:36:15.933Z,2.40
2023-03-06T19:38:43.010Z,2.03
2023-03-06T19:41:13.926Z,1.77
2023-03-06T19:43:41.924Z,1.90
2023-03-06T19:46:15.325Z,2.13
2023-03-06T19:48:42.468Z,3.30
2023-03-06T19:51:09.794Z,3.00
2023-03-06T19:53:37.701Z,3.57
2023-03-06T19:56:15.680Z,5.23
2023-03-06T19:58:42.574Z,2.63
2023-03-06T20:01:15.090Z,2.50
2023-03-06T20:03:42.519Z,2.60
2023-03-06T20:06:18.520Z,2.10
2023-03-06T20:08:46.503Z,2.30
2023-03-06T20:11:29.696Z,2.03
2023-03-06T20:13:58.379Z,2.20
2023-03-06T20:16:27.719Z,2.23
2023-03-06T20:18:58.103Z,3.30
2023-03-06T20:21:26.090Z,2.10
2023-03-06T20:23:54.516Z,1.90
2023-03-06T20:26:21.285Z,1.97
2023-03-06T20:28:48.171Z,1.50
2023-03-06T20:31:17.741Z,2.37
2023-03-06T20:33:48.912Z,1.97
2023-03-06T20:36:17.916Z,2.37
2023-03-06T20:38:45.378Z,3.20
2023-03-06T20:41:20.122Z,2.60
2023-03-06T20:43:46.998Z,11.43
2023-03-06T20:46:14.526Z,3.63
2023-03-06T20:48:45.724Z,2.70
2023-03-06T20:51:32.097Z,3.37
2023-03-06T20:54:00.840Z,3.43
2023-03-06T20:56:30.001Z,3.73
2023-03-06T20:58:57.485Z,3.20
2023-03-06T21:01:29.835Z,4.30
2023-03-06T21:03:57.504Z,2.80
2023-03-06T21:06:25.449Z,3.60
2023-03-06T21:08:52.328Z,2.60
2023-03-06T21:11:19.012Z,3.80
2023-03-06T21:13:46.768Z,3.77
2023-03-06T21:16:16.365Z,3.67
2023-03-06T21:19:09.950Z,3.73
2023-03-06T21:21:56.591Z,5.67
2023-03-06T21:24:23.226Z,8.50
2023-03-06T21:26:51.216Z,5.03
2023-03-06T21:29:17.874Z,7.60
2023-03-06T21:31:44.573Z,6.63
2023-03-06T21:34:12.985Z,5.13
2023-03-06T21:36:40.042Z,7.33
2023-03-06T21:39:07.101Z,4.70
2023-03-06T21:41:34.354Z,5.57
2023-03-06T21:44:03.722Z,5.53
2023-03-06T21:46:31.333Z,5.57
2023-03-06T21:48:58.609Z,5.70
2023-03-06T21:51:26.616Z,6.10
2023-03-06T21:53:54.429Z,6.10
2023-03-06T21:56:24.915Z,6.63
2023-03-06T21:58:51.825Z,7.47
2023-03-06T22:01:24.299Z,8.43
2023-03-06T22:03:51.375Z,8.50
2023-03-06T22:06:21.240Z,8.67
2023-03-06T22:08:48.099Z,9.40
2023-03-06T22:11:20.246Z,11.10
2023-03-06T22:13:50.888Z,10.90
2023-03-06T22:16:18.516Z,13.73
2023-03-06T22:18:47.299Z,12.00
2023-03-06T22:21:16.605Z,13.43
2023-03-06T22:23:43.481Z,13.90
2023-03-06T22:26:13.451Z,12.87
2023-03-06T22:28:41.311Z,13.40
2023-03-06T22:31:14.093Z,13.67
2023-03-06T22:33:41.837Z,17.03
2023-03-06T22:36:12.116Z,18.17
2023-03-06T22:38:41.115Z,16.33
2023-03-06T22:41:09.378Z,15.43
2023-03-06T22:43:36.844Z,16.33
2023-03-06T22:46:06.727Z,16.73
2023-03-06T22:48:34.040Z,18.17
2023-03-06T22:51:09.361Z,19.90
2023-03-06T22:53:36.356Z,19.87
2023-03-06T22:56:05.211Z,18.23
2023-03-06T22:58:40.298Z,18.40
2023-03-06T23:01:16.206Z,19.50
2023-03-06T23:03:45.829Z,21.30
2023-03-06T23:06:21.786Z,22.27
2023-03-06T23:08:58.989Z,22.37
2023-03-06T23:11:27.984Z,22.20
2023-03-06T23:13:55.037Z,25.20
2023-03-06T23:16:21.796Z,24.37
2023-03-06T23:18:51.188Z,25.83
2023-03-06T23:21:19.567Z,26.57
2023-03-06T23:23:51.151Z,27.33
2023-03-06T23:26:19.530Z,26.83
2023-03-06T23:28:46.289Z,28.53
2023-03-06T23:31:15.522Z,29.27
2023-03-06T23:33:42.637Z,29.83
2023-03-06T23:36:12.136Z,31.63
2023-03-06T23:38:39.597Z,31.53
2023-03-06T23:41:08.533Z,27.93
2023-03-06T23:43:35.715Z,28.47
2023-03-06T23:46:02.943Z,31.47
2023-03-06T23:48:30.110Z,31.10
2023-03-06T23:50:57.139Z,32.83
2023-03-06T23:53:23.829Z,34.90
2023-03-06T23:55:51.313Z,28.23
2023-03-06T23:58:19.515Z,31.33
